Time;durP1;ratioP1;P1;durP2;ratioP2;P2;SDS_P1;SDS_P2;PMS_P1;PMS_P2;Temp;Humidity;BMP_temperature;BMP_pressure;BME280_temperature;BME280_humidity;BME280_pressure;Samples;Min_cycle;Max_cycle;Signal;HPM_P1;HPM_P2
2022/12/19 00:01:42;;;;;;;27.00;24.35;;;;;;;0.84;100.00;101800.72;5104623;29;20536;-67
2022/12/19 00:04:18;;;;;;;32.45;25.05;;;;;;;0.99;100.00;101814.97;5087600;29;20039;-67
2022/12/19 00:06:49;;;;;;;28.60;25.83;;;;;;;1.02;100.00;101806.66;5104838;29;20058;-65
2022/12/19 00:09:19;;;;;;;26.35;23.88;;;;;;;1.06;100.00;101804.50;5104662;29;20509;-65
2022/12/19 00:11:49;;;;;;;32.83;28.73;;;;;;;1.08;100.00;101789.19;5103758;29;20028;-65
2022/12/19 00:14:20;;;;;;;35.88;28.05;;;;;;;1.15;100.00;101774.22;5087228;29;20059;-65
2022/12/19 00:16:50;;;;;;;29.58;26.63;;;;;;;1.17;100.00;101772.19;5104576;29;20480;-65
2022/12/19 00:19:20;;;;;;;28.27;24.90;;;;;;;1.21;100.00;101778.81;5104519;29;20047;-65
2022/12/19 00:21:51;;;;;;;26.73;23.88;;;;;;;1.28;100.00;101774.47;5105109;29;20563;-65
2022/12/19 00:24:21;;;;;;;30.67;26.92;;;;;;;1.30;100.00;101780.47;5104445;29;20054;-65
2022/12/19 00:26:51;;;;;;;26.38;22.95;;;;;;;1.25;100.00;101766.00;5105832;29;20086;-65
2022/12/19 00:29:22;;;;;;;29.05;22.92;;;;;;;1.33;100.00;101773.97;5106083;29;20035;-66
2022/12/19 00:31:52;;;;;;;25.10;22.60;;;;;;;1.39;100.00;101767.13;5121328;23;20035;-66
2022/12/19 00:34:23;;;;;;;25.25;23.02;;;;;;;1.45;100.00;101763.75;5105366;29;20075;-66
2022/12/19 00:36:53;;;;;;;30.15;26.70;;;;;;;1.47;100.00;101767.06;5105523;29;20027;-67
2022/12/19 00:39:23;;;;;;;27.83;25.02;;;;;;;1.48;100.00;101755.41;5104846;29;20500;-67
2022/12/19 00:41:54;;;;;;;27.42;23.85;;;;;;;1.37;100.00;101737.19;5105348;29;20031;-68
2022/12/19 00:44:24;;;;;;;22.88;20.77;;;;;;;1.50;100.00;101756.91;5104343;28;20078;-68
2022/12/19 00:46:55;;;;;;;25.08;22.95;;;;;;;1.57;100.00;101751.72;5105674;29;20044;-73
2022/12/19 00:49:25;;;;;;;25.27;22.65;;;;;;;1.61;100.00;101747.72;5106137;29;20038;-68
2022/12/19 00:51:56;;;;;;;24.42;21.23;;;;;;;1.60;100.00;101756.69;5105808;29;20111;-68
2022/12/19 00:54:27;;;;;;;24.10;21.70;;;;;;;1.61;100.00;101742.38;5105899;29;20317;-68
2022/12/19 00:56:57;;;;;;;23.83;21.63;;;;;;;1.62;100.00;101755.53;5105736;29;20027;-68
2022/12/19 00:59:27;;;;;;;21.88;19.85;;;;;;;1.63;100.00;101749.19;5105441;29;20114;-68
2022/12/19 01:01:58;;;;;;;26.45;23.05;;;;;;;1.66;100.00;101737.38;5105144;29;20030;-68
2022/12/19 01:04:28;;;;;;;25.42;22.85;;;;;;;1.69;100.00;101737.84;5105575;29;20032;-68
2022/12/19 01:06:59;;;;;;;23.02;20.77;;;;;;;1.74;100.00;101739.13;5105706;29;20051;-68
2022/12/19 01:09:30;;;;;;;26.38;23.65;;;;;;;1.74;100.00;101742.63;5088149;29;20276;-68
2022/12/19 01:14:53;;;;;;;25.20;22.85;;;;;;;1.81;100.00;101738.25;5104942;29;20058;-68
2022/12/19 01:17:23;;;;;;;24.80;22.15;;;;;;;1.54;100.00;101699.66;5105049;29;20074;-68
2022/12/19 01:19:53;;;;;;;24.17;19.92;;;;;;;1.82;100.00;101734.59;5105316;29;20082;-67
2022/12/19 01:22:24;;;;;;;28.42;21.58;;;;;;;1.80;100.00;101725.09;5104708;29;20019;-67
2022/12/19 01:24:54;;;;;;;24.00;21.58;;;;;;;1.84;100.00;101726.41;5104995;29;20058;-67
2022/12/19 01:27:24;;;;;;;23.58;20.95;;;;;;;1.79;100.00;101710.97;5104892;29;20404;-67
2022/12/19 01:29:55;;;;;;;26.05;23.42;;;;;;;1.89;100.00;101719.56;5104606;29;20043;-68
2022/12/19 01:32:25;;;;;;;22.90;20.67;;;;;;;1.88;100.00;101720.56;5104866;29;20114;-68
2022/12/19 01:34:55;;;;;;;29.27;24.50;;;;;;;1.89;100.00;101708.91;5104992;29;20024;-67
2022/12/19 01:37:26;;;;;;;24.02;21.58;;;;;;;1.83;100.00;101700.78;5104926;29;20031;-67
2022/12/19 01:39:56;;;;;;;23.35;21.17;;;;;;;1.81;100.00;101689.50;5104906;29;20547;-67
2022/12/19 01:42:34;;;;;;;26.80;23.33;;;;;;;1.73;100.00;101670.94;5104845;29;20043;-66
2022/12/19 01:45:08;;;;;;;26.30;23.80;;;;;;;1.99;100.00;101709.50;5104997;29;20121;-66
2022/12/19 01:47:48;;;;;;;20.58;18.83;;;;;;;2.07;100.00;101700.59;5087768;29;20488;-67
2022/12/19 01:50:25;;;;;;;21.25;18.83;;;;;;;2.10;100.00;101707.41;5107086;29;20140;-67
2022/12/19 01:52:57;;;;;;;23.92;21.65;;;;;;;2.11;100.00;101706.38;5108219;29;20511;-66
2022/12/19 01:55:27;;;;;;;20.83;18.98;;;;;;;2.18;100.00;101699.34;5108288;29;20106;-66
2022/12/19 01:58:00;;;;;;;24.35;21.77;;;;;;;2.12;100.00;101692.06;5091092;29;20163;-66
2022/12/19 02:00:31;;;;;;;23.75;20.38;;;;;;;2.19;100.00;101709.00;5108407;29;20027;-67
2022/12/19 02:03:34;;;;;;;20.60;18.52;;;;;;;2.25;100.00;101710.94;5090643;29;20035;-67
2022/12/19 02:06:05;;;;;;;21.10;19.33;;;;;;;2.34;100.00;101699.19;5108248;29;20044;-67
2022/12/19 02:08:39;;;;;;;23.70;20.02;;;;;;;2.38;100.00;101692.47;5108241;29;20027;-67
2022/12/19 02:11:10;;;;;;;24.10;17.83;;;;;;;2.41;100.00;101686.78;5108049;29;20032;-67
2022/12/19 02:13:41;;;;;;;24.40;22.38;;;;;;;2.44;100.00;101689.09;5107852;29;20407;-66
2022/12/19 02:16:31;;;;;;;21.02;19.00;;;;;;;2.49;100.00;101676.06;5107893;29;20024;-66
2022/12/19 02:19:08;;;;;;;;;;;;;;;2.52;100.00;101678.34;5108230;29;20035;-66
2022/12/19 02:22:00;;;;;;;20.75;19.00;;;;;;;2.55;100.00;101671.81;5107644;29;19923;-66
2022/12/19 02:25:08;;;;;;;21.92;19.90;;;;;;;2.57;100.00;101662.63;5108020;29;20095;-66
2022/12/19 02:28:06;;;;;;;18.90;16.80;;;;;;;2.38;100.00;101629.34;5107915;29;20027;-66
2022/12/19 02:30:51;;;;;;;22.05;19.73;;;;;;;2.71;100.00;101658.28;5107841;29;20170;-67
2022/12/19 02:33:59;;;;;;;20.75;18.60;;;;;;;2.75;100.00;101667.59;5107757;29;20032;-67
2022/12/19 02:36:51;;;;;;;18.42;16.70;;;;;;;2.82;100.00;101655.19;5085443;29;20035;-67
2022/12/19 02:39:44;;;;;;;22.17;18.88;;;;;;;2.85;100.00;101668.16;5119931;23;20048;-84
2022/12/19 02:42:24;;;;;;;17.67;16.20;;;;;;;2.36;100.00;101567.38;5104170;29;20083;-83
2022/12/19 02:44:57;;;;;;;23.80;21.50;;;;;;;2.73;100.00;101632.28;5105032;29;20024;-84
2022/12/19 02:47:30;;;;;;;18.90;17.15;;;;;;;2.93;100.00;101654.69;5104921;29;20035;-84
2022/12/19 02:50:02;;;;;;;19.55;17.73;;;;;;;2.98;100.00;101641.63;5087898;29;20100;-83
2022/12/19 02:52:32;;;;;;;20.90;18.80;;;;;;;3.01;100.00;101648.41;5088016;29;20008;-84
2022/12/19 02:55:10;;;;;;;19.13;17.50;;;;;;;3.07;100.00;101642.34;5104730;29;20092;-85
2022/12/19 02:58:02;;;;;;;17.25;15.50;;;;;;;3.07;100.00;101634.34;5104675;29;20052;-85
2022/12/19 03:00:43;;;;;;;15.65;14.38;;;;;;;2.88;100.00;101602.94;5102612;29;20020;-82
2022/12/19 03:03:26;;;;;;;19.90;16.15;;;;;;;3.22;100.00;101640.44;5087665;29;20121;-82
2022/12/19 03:05:59;;;;;;;19.42;17.83;;;;;;;3.33;100.00;101637.28;5104499;29;20024;-85
2022/12/19 03:08:51;;;;;;;16.30;14.90;;;;;;;3.31;100.00;101609.97;5103429;29;20028;-83
2022/12/19 03:11:24;;;;;;;17.55;15.35;;;;;;;3.40;100.00;101634.69;5111392;29;20032;-83
2022/12/19 03:14:01;;;;;;;18.08;16.35;;;;;;;3.42;100.00;101622.00;5111483;29;20016;-83
2022/12/19 03:16:35;;;;;;;17.80;16.02;;;;;;;3.24;100.00;101582.38;5112087;29;20047;-85
2022/12/19 03:19:12;;;;;;;16.20;14.80;;;;;;;3.54;100.00;101617.78;5108699;29;20024;-83
2022/12/19 03:21:45;;;;;;;17.98;16.50;;;;;;;3.67;100.00;101631.25;5104274;29;20028;-84
2022/12/19 03:24:16;;;;;;;16.27;14.85;;;;;;;3.73;100.00;101627.84;5088136;29;20008;-83
2022/12/19 03:27:10;;;;;;;17.00;15.52;;;;;;;3.78;100.00;101643.25;5111057;29;20023;-83
2022/12/19 03:30:09;;;;;;;15.82;14.60;;;;;;;3.70;100.00;101598.00;5109321;29;20383;-82
2022/12/19 03:32:42;;;;;;;14.27;13.10;;;;;;;3.90;100.00;101628.38;5098443;29;20052;-83
2022/12/19 03:35:19;;;;;;;16.42;15.10;;;;;;;3.88;100.00;101609.03;5103483;29;20046;-83
2022/12/19 03:37:57;;;;;;;16.30;14.80;;;;;;;4.01;100.00;101625.19;5103479;29;20028;-84
2022/12/19 03:40:31;;;;;;;16.60;13.35;;;;;;;4.04;100.00;101621.28;5087273;29;20027;-84
2022/12/19 03:43:09;;;;;;;15.07;13.02;;;;;;;3.97;100.00;101601.72;5087120;29;20020;-86
2022/12/19 03:45:54;;;;;;;20.20;16.95;;;;;;;4.20;100.00;101629.00;5088093;29;20047;-84
2022/12/19 03:48:34;;;;;;;15.60;14.52;;;;;;;4.19;100.00;101621.19;5104672;29;20032;-84
2022/12/19 03:51:14;;;;;;;16.98;15.40;;;;;;;4.06;100.00;101609.38;5103217;29;20059;-85
2022/12/19 03:54:03;;;;;;;14.43;13.18;;;;;;;4.26;100.00;101619.38;5102377;29;20043;-84
2022/12/19 03:56:44;;;;;;;15.93;14.40;;;;;;;4.28;100.00;101626.19;5100972;29;20051;-84
2022/12/19 03:59:21;;;;;;;16.48;14.75;;;;;;;4.30;100.00;101640.19;5085222;29;20024;-83
2022/12/19 04:01:53;;;;;;;14.90;13.65;;;;;;;3.99;100.00;101587.13;5102378;29;20068;-81
2022/12/19 04:04:27;;;;;;;13.80;12.60;;;;;;;4.36;100.00;101631.38;5102675;29;20030;-83
2022/12/19 04:06:58;;;;;;;15.90;14.45;;;;;;;4.16;100.00;101595.66;5089373;29;20083;-84
2022/12/19 04:09:29;;;;;;;17.48;15.88;;;;;;;4.17;100.00;101593.81;5104002;29;20129;-84
2022/12/19 04:12:04;;;;;;;15.85;14.55;;;;;;;4.19;100.00;101571.22;5099704;29;20077;-83
2022/12/19 04:14:37;;;;;;;14.30;13.00;;;;;;;4.46;100.00;101614.97;5101182;29;20032;-83
2022/12/19 04:17:30;;;;;;;17.80;16.13;;;;;;;4.51;100.00;101615.22;5101343;29;20058;-83
2022/12/19 04:20:10;;;;;;;13.35;12.02;;;;;;;4.17;100.00;101564.41;5101700;29;20062;-83
2022/12/19 04:22:48;;;;;;;14.85;13.45;;;;;;;4.47;100.00;101605.94;5104057;29;20111;-84
2022/12/19 04:25:26;;;;;;;16.65;14.90;;;;;;;4.36;100.00;101587.75;5101962;29;20084;-83
2022/12/19 04:28:04;;;;;;;15.20;13.70;;;;;;;4.47;100.00;101616.63;5098310;29;20028;-83
2022/12/19 04:30:37;;;;;;;14.77;13.48;;;;;;;4.31;100.00;101582.19;5098131;29;20021;-83
2022/12/19 04:33:07;;;;;;;14.77;13.43;;;;;;;4.27;100.00;101562.22;5098040;29;20521;-84
2022/12/19 04:35:38;;;;;;;16.42;14.65;;;;;;;4.40;100.00;101587.16;5098917;29;20032;-83
2022/12/19 04:38:08;;;;;;;14.32;12.77;;;;;;;4.28;100.00;101570.06;5082444;29;20039;-84
2022/12/19 04:40:38;;;;;;;14.38;12.65;;;;;;;4.68;100.00;101623.72;5082377;29;20031;-84
2022/12/19 04:43:09;;;;;;;15.43;14.20;;;;;;;4.71;100.00;101640.22;5098404;29;20035;-84
2022/12/19 04:45:41;;;;;;;15.80;14.30;;;;;;;4.60;100.00;101616.72;5100975;29;20036;-82
2022/12/19 04:48:11;;;;;;;16.10;14.55;;;;;;;4.57;100.00;101601.06;5084873;29;20032;-83
2022/12/19 04:50:41;;;;;;;14.90;13.80;;;;;;;4.71;100.00;101620.66;5101527;29;20028;-83
2022/12/19 04:53:12;;;;;;;13.82;12.57;;;;;;;4.45;100.00;101591.94;5102234;29;20092;-82
2022/12/19 04:55:43;;;;;;;13.77;12.55;;;;;;;4.79;100.00;101617.81;5099896;29;20043;-82
2022/12/19 04:58:13;;;;;;;14.10;12.93;;;;;;;4.77;100.00;101619.03;5100579;29;20372;-82
2022/12/19 05:00:43;;;;;;;14.02;12.55;;;;;;;4.74;100.00;101599.69;5100616;29;20028;-82
2022/12/19 05:03:14;;;;;;;13.82;12.63;;;;;;;4.70;100.00;101616.31;5084386;29;20047;-82
2022/12/19 05:05:44;;;;;;;11.98;11.15;;;;;;;4.58;100.00;101586.66;5101877;29;20036;-82
2022/12/19 05:08:14;;;;;;;12.30;11.30;;;;;;;4.53;100.00;101567.69;5101772;29;20032;-82
2022/12/19 05:10:45;;;;;;;13.85;12.77;;;;;;;4.64;100.00;101585.00;5102236;29;20088;-82
2022/12/19 05:13:15;;;;;;;12.23;11.35;;;;;;;4.87;100.00;101617.66;5102155;29;20033;-82
2022/12/19 05:15:54;;;;;;;13.63;12.32;;;;;;;4.91;100.00;101615.41;5102144;29;20020;-82
2022/12/19 05:18:25;;;;;;;13.80;12.67;;;;;;;4.95;100.00;101601.41;5102444;29;20028;-82
2022/12/19 05:20:56;;;;;;;13.65;12.38;;;;;;;4.96;100.00;101600.38;5102660;29;20272;-83
2022/12/19 05:23:27;;;;;;;12.05;10.98;;;;;;;4.80;100.00;101578.50;5100934;29;20043;-82
2022/12/19 05:25:59;;;;;;;13.63;12.43;;;;;;;4.90;100.00;101584.31;5104803;29;20032;-82
2022/12/19 05:28:31;;;;;;;13.02;11.80;;;;;;;4.91;100.00;101577.94;5089426;29;20032;-82
2022/12/19 05:31:27;;;;;;;12.57;11.55;;;;;;;5.04;100.00;101596.69;5104892;29;20024;-82
2022/12/19 05:33:57;;;;;;;12.50;11.52;;;;;;;5.04;100.00;101602.06;5101528;29;20074;-82
2022/12/19 05:36:28;;;;;;;11.38;10.57;;;;;;;5.02;100.00;101604.09;5105223;29;20032;-83
2022/12/19 05:38:59;;;;;;;12.65;11.57;;;;;;;5.04;100.00;101605.56;5087525;29;20035;-82
2022/12/19 05:41:29;;;;;;;14.52;13.50;;;;;;;5.03;100.00;101619.97;5106580;29;20024;-83
2022/12/19 05:44:00;;;;;;;13.30;12.13;;;;;;;4.94;100.00;101606.94;5104826;29;20487;-83
2022/12/19 05:46:30;;;;;;;13.07;11.73;;;;;;;4.92;100.00;101590.28;5105765;29;20028;-82
2022/12/19 05:49:00;;;;;;;13.75;12.63;;;;;;;5.08;100.00;101616.69;5089767;29;20039;-82
2022/12/19 05:51:31;;;;;;;15.82;13.65;;;;;;;5.09;100.00;101634.41;5106030;29;20035;-82
2022/12/19 05:54:01;;;;;;;13.85;12.57;;;;;;;4.96;100.00;101599.53;5103677;29;20663;-82
2022/12/19 05:56:32;;;;;;;12.38;11.43;;;;;;;5.11;100.00;101618.16;5102811;29;20056;-83
2022/12/19 05:59:02;;;;;;;12.15;11.30;;;;;;;5.08;100.00;101600.63;5102312;29;20024;-82
2022/12/19 06:01:32;;;;;;;14.05;12.88;;;;;;;5.11;100.00;101607.44;5102100;29;20080;-82
2022/12/19 06:04:03;;;;;;;13.30;12.27;;;;;;;5.06;100.00;101608.03;5102069;29;20051;-83
2022/12/19 06:06:34;;;;;;;13.63;12.25;;;;;;;5.13;100.00;101619.59;5086014;29;20049;-83
2022/12/19 06:09:04;;;;;;;11.65;10.65;;;;;;;4.91;100.00;101580.63;5101119;29;20034;-83
2022/12/19 06:11:35;;;;;;;12.38;11.07;;;;;;;5.20;100.00;101620.41;5084299;29;20056;-83
2022/12/19 06:14:05;;;;;;;13.77;12.52;;;;;;;5.05;100.00;101598.34;5085366;29;20071;-82
2022/12/19 06:16:35;;;;;;;13.55;12.20;;;;;;;5.14;100.00;101617.75;5102435;29;20024;-81
2022/12/19 06:19:06;;;;;;;12.15;11.27;;;;;;;5.32;100.00;101639.41;5101632;29;20035;-82
2022/12/19 06:21:36;;;;;;;12.63;11.35;;;;;;;5.30;100.00;101639.59;5085720;29;20031;-83
2022/12/19 06:24:07;;;;;;;14.02;12.85;;;;;;;5.34;100.00;101642.72;5101472;29;20091;-83
2022/12/19 06:26:38;;;;;;;12.90;11.80;;;;;;;5.24;100.00;101613.63;5084365;29;20035;-83
2022/12/19 06:29:08;;;;;;;13.20;12.15;;;;;;;4.91;100.00;101561.88;5102599;29;20056;-83
2022/12/19 06:31:38;;;;;;;11.52;10.70;;;;;;;5.13;100.00;101597.34;5105827;29;20020;-81
2022/12/19 06:34:10;;;;;;;13.23;12.20;;;;;;;4.47;100.00;101487.44;5105411;29;20028;-83
2022/12/19 06:36:40;;;;;;;13.15;12.02;;;;;;;5.23;100.00;101605.81;5099664;29;20111;-83
2022/12/19 06:39:13;;;;;;;10.80;10.02;;;;;;;5.36;100.00;101654.88;5100565;29;20072;-83
2022/12/19 06:44:32;;;;;;;13.13;11.90;;;;;;;5.16;100.00;101621.88;5100628;29;20051;-82
2022/12/19 06:47:03;;;;;;;11.13;10.32;;;;;;;5.13;100.00;101610.75;5100517;29;20024;-82
2022/12/19 06:49:33;;;;;;;13.77;12.80;;;;;;;5.41;100.00;101646.25;5099892;29;20398;-82
2022/12/19 06:52:04;;;;;;;13.40;10.93;;;;;;;5.42;100.00;101643.38;5084855;29;20024;-84
2022/12/19 06:54:34;;;;;;;12.57;11.65;;;;;;;5.16;100.00;101599.63;5099136;29;20304;-82
2022/12/19 06:57:05;;;;;;;10.68;9.98;;;;;;;5.36;100.00;101619.22;5101874;29;20080;-82
2022/12/19 06:59:35;;;;;;;12.25;11.45;;;;;;;5.45;100.00;101626.06;5101729;29;20032;-82
2022/12/19 07:02:28;;;;;;;12.85;11.70;;;;;;;5.31;100.00;101619.00;5101331;29;20016;-84
2022/12/19 07:05:04;;;;;;;11.35;9.77;;;;;;;5.43;100.00;101636.97;5099748;29;20024;-83
2022/12/19 07:07:35;;;;;;;11.93;10.75;;;;;;;5.36;100.00;101617.38;5099999;29;20020;-83
2022/12/19 07:10:09;;;;;;;14.30;11.40;;;;;;;5.40;100.00;101610.59;5082689;29;20315;-83
2022/12/19 07:12:40;;;;;;;12.18;11.18;;;;;;;5.51;100.00;101630.56;5087879;29;20114;-85
2022/12/19 07:15:11;;;;;;;10.98;10.27;;;;;;;5.19;100.00;101573.28;5115734;29;20045;-84
2022/12/19 07:17:41;;;;;;;11.35;10.30;;;;;;;4.98;100.00;101527.91;5114738;29;20035;-84
2022/12/19 07:20:14;;;;;;;11.38;10.52;;;;;;;5.24;100.00;101573.47;5112159;29;20171;-84
2022/12/19 07:22:45;;;;;;;9.68;8.88;;;;;;;5.55;100.00;101626.47;5095427;29;20439;-84
2022/12/19 07:25:16;;;;;;;11.48;10.45;;;;;;;5.57;100.00;101640.50;5095769;29;20393;-84
2022/12/19 07:27:47;;;;;;;12.05;11.07;;;;;;;4.79;100.00;101523.34;5112808;29;20106;-85
2022/12/19 07:30:17;;;;;;;11.25;10.48;;;;;;;5.08;100.00;101553.28;5101216;29;20495;-85
2022/12/19 07:32:48;;;;;;;9.82;8.85;;;;;;;5.33;100.00;101596.34;5073061;29;20104;-85
2022/12/19 07:35:18;;;;;;;11.35;10.35;;;;;;;5.41;100.00;101587.31;5086283;29;20351;-86
2022/12/19 07:37:49;;;;;;;10.18;9.20;;;;;;;5.40;100.00;101580.31;5073332;29;20444;-87
2022/12/19 07:40:19;;;;;;;10.63;9.77;;;;;;;5.14;100.00;101542.78;5070262;29;20036;-85
2022/12/19 07:42:50;;;;;;;9.10;8.25;;;;;;;5.28;100.00;101577.41;5069798;29;20039;-85
2022/12/19 07:45:20;;;;;;;9.77;8.90;;;;;;;5.73;100.00;101624.03;5087252;29;20032;-85
2022/12/19 07:47:50;;;;;;;9.10;8.38;;;;;;;5.29;100.00;101546.09;5095805;29;20046;-85
2022/12/19 07:50:21;;;;;;;10.93;9.68;;;;;;;5.52;100.00;101583.19;5095784;29;20040;-84
2022/12/19 07:52:51;;;;;;;10.75;8.68;;;;;;;5.74;100.00;101617.66;5097973;29;20046;-84
2022/12/19 07:55:22;;;;;;;8.88;8.18;;;;;;;5.66;100.00;101600.94;5098457;29;20035;-84
2022/12/19 07:57:52;;;;;;;11.18;10.50;;;;;;;5.71;100.00;101601.97;5098454;29;20032;-84
2022/12/19 08:00:23;;;;;;;9.40;8.68;;;;;;;5.92;100.00;101627.78;5096650;29;20451;-84
2022/12/19 08:02:53;;;;;;;11.73;10.77;;;;;;;5.88;100.00;101621.13;5096768;29;20032;-84
2022/12/19 08:05:23;;;;;;;9.32;8.63;;;;;;;5.48;100.00;101566.72;5096207;29;20335;-85
2022/12/19 08:07:54;;;;;;;8.93;8.32;;;;;;;5.76;100.00;101625.47;5093432;29;20036;-85
2022/12/19 08:10:24;;;;;;;10.20;9.40;;;;;;;5.50;100.00;101575.34;5091861;29;20059;-84
2022/12/19 08:12:55;;;;;;;9.52;8.50;;;;;;;5.74;100.00;101603.41;5090134;29;20090;-82
2022/12/19 08:15:26;;;;;;;10.13;9.43;;;;;;;5.58;100.00;101593.91;5091704;29;20051;-84
2022/12/19 08:17:56;;;;;;;10.23;9.23;;;;;;;5.61;100.00;101587.31;5094680;29;20020;-86
2022/12/19 08:20:27;;;;;;;8.85;8.05;;;;;;;5.52;100.00;101575.97;5077824;29;20068;-85
2022/12/19 08:22:57;;;;;;;9.30;7.82;;;;;;;5.93;100.00;101632.09;5077486;29;20130;-85
2022/12/19 08:25:28;;;;;;;9.40;8.55;;;;;;;6.02;100.00;101652.31;5095399;29;20024;-85
2022/12/19 08:27:58;;;;;;;8.15;7.60;;;;;;;6.08;100.00;101664.03;5099348;29;20056;-85
2022/12/19 08:30:28;;;;;;;8.68;7.97;;;;;;;5.57;100.00;101575.38;5099649;29;20087;-86
2022/12/19 08:32:59;;;;;;;7.47;6.97;;;;;;;5.68;100.00;101604.25;5081016;29;20505;-85
2022/12/19 08:35:29;;;;;;;9.57;9.02;;;;;;;5.95;100.00;101645.31;5102352;29;20502;-87
2022/12/19 08:38:02;;;;;;;10.68;9.77;;;;;;;5.91;100.00;101631.47;5104206;29;20028;-89
2022/12/19 08:40:33;;;;;;;10.55;8.55;;;;;;;5.99;100.00;101642.00;5115355;23;20047;-84
2022/12/19 08:43:03;;;;;;;8.80;8.23;;;;;;;6.24;100.00;101673.56;5134976;29;20062;-83
2022/12/19 08:45:34;;;;;;;7.55;6.95;;;;;;;6.27;100.00;101670.44;5133449;29;20031;-81
2022/12/19 08:48:05;;;;;;;7.57;7.15;;;;;;;6.00;100.00;101616.84;5133423;29;20046;-82
2022/12/19 08:50:35;;;;;;;8.57;7.65;;;;;;;6.28;100.00;101659.53;5134214;29;20028;-81
2022/12/19 08:53:05;;;;;;;7.68;7.18;;;;;;;6.13;100.00;101623.22;5133224;29;20446;-81
2022/12/19 08:55:36;;;;;;;7.63;7.13;;;;;;;6.39;100.00;101658.88;5134244;29;20027;-84
2022/12/19 08:58:06;;;;;;;8.55;7.95;;;;;;;6.50;100.00;101662.78;5133009;29;20042;-82
2022/12/19 09:00:37;;;;;;;8.20;7.43;;;;;;;6.54;100.00;101674.75;5133506;29;20018;-82
2022/12/19 09:03:07;;;;;;;9.02;8.23;;;;;;;6.51;100.00;101659.06;5133510;29;20031;-80
2022/12/19 09:05:38;;;;;;;8.88;8.00;;;;;;;6.30;100.00;101613.72;5116924;29;20035;-82
2022/12/19 09:08:08;;;;;;;7.88;7.07;;;;;;;6.62;100.00;101662.97;5117196;29;20031;-82
2022/12/19 09:10:39;;;;;;;7.72;7.13;;;;;;;6.63;100.00;101662.75;5134238;29;20035;-82
2022/12/19 09:13:09;;;;;;;6.45;6.05;;;;;;;6.70;100.00;101658.19;5116707;29;20094;-82
2022/12/19 09:15:39;;;;;;;7.57;7.15;;;;;;;6.45;100.00;101606.25;5113985;29;20027;-84
2022/12/19 09:18:10;;;;;;;7.60;7.05;;;;;;;6.51;100.00;101605.41;5097116;29;20471;-82
2022/12/19 09:20:41;;;;;;;7.60;6.60;;;;;;;6.71;100.00;101635.69;5096779;29;20031;-82
2022/12/19 09:23:11;;;;;;;6.88;6.40;;;;;;;6.92;100.00;101664.13;5124140;29;20034;-82
2022/12/19 09:25:41;;;;;;;6.93;6.53;;;;;;;6.93;100.00;101662.25;5134281;29;20027;-82
2022/12/19 09:28:12;;;;;;;7.65;7.15;;;;;;;6.78;100.00;101632.97;5133920;29;20030;-82
2022/12/19 09:30:42;;;;;;;10.30;6.70;;;;;;;6.90;100.00;101660.81;5133829;29;20038;-79
2022/12/19 09:33:13;;;;;;;7.47;6.88;;;;;;;6.99;100.00;101696.31;5134305;29;20033;-81
2022/12/19 09:35:49;;;;;;;7.60;6.90;;;;;;;6.95;100.00;101676.28;5117212;29;20107;-82
2022/12/19 09:38:21;;;;;;;8.38;7.57;;;;;;;6.98;100.00;101665.13;5134167;29;20103;-82
2022/12/19 09:41:08;;;;;;;7.55;6.65;;;;;;;7.04;100.00;101673.16;5116877;29;20489;-84
2022/12/19 09:44:16;;;;;;;7.72;7.20;;;;;;;7.09;100.00;101677.88;5134344;29;20019;-82
2022/12/19 09:46:51;;;;;;;6.07;5.78;;;;;;;7.09;100.00;101677.88;5134029;29;20093;-82
2022/12/19 09:49:25;;;;;;;6.68;6.28;;;;;;;7.05;100.00;101688.22;5117440;29;20035;-79
2022/12/19 09:52:01;;;;;;;7.25;6.82;;;;;;;6.90;100.00;101660.00;5099903;29;20038;-82
2022/12/19 09:54:37;;;;;;;6.63;6.00;;;;;;;7.07;100.00;101685.34;5115060;29;20070;-83
2022/12/19 09:57:19;;;;;;;6.00;5.68;;;;;;;7.10;100.00;101682.22;5115103;29;20019;-80
2022/12/19 10:00:05;;;;;;;7.78;7.28;;;;;;;7.17;100.00;101696.47;5113135;29;20027;-82
2022/12/19 10:02:56;;;;;;;6.70;6.18;;;;;;;7.20;100.00;101690.66;5102045;29;20020;-82
2022/12/19 10:05:40;;;;;;;7.07;6.68;;;;;;;7.11;100.00;101673.13;5096168;29;20046;-82
2022/12/19 10:08:37;;;;;;;7.43;6.72;;;;;;;7.12;100.00;101677.47;5078982;29;20051;-82
2022/12/19 10:11:29;;;;;;;6.30;5.80;;;;;;;7.06;100.00;101683.69;5099906;29;20031;-81
2022/12/19 10:14:23;;;;;;;6.60;6.10;;;;;;;7.01;100.00;101694.22;5118289;29;20866;-81
2022/12/19 10:17:31;;;;;;;7.03;6.45;;;;;;;6.99;100.00;101690.94;5117160;29;20091;-81
2022/12/19 10:20:15;;;;;;;7.53;6.90;;;;;;;6.95;100.00;101706.63;5117086;29;20398;-81
2022/12/19 10:22:51;;;;;;;6.80;6.28;;;;;;;6.90;100.00;101695.72;5117241;29;20069;-80
2022/12/19 10:25:46;;;;;;;7.25;6.85;;;;;;;6.88;100.00;101705.84;5100017;29;20039;-81
2022/12/19 10:28:28;;;;;;;10.30;7.97;;;;;;;6.87;100.00;101703.38;5096785;29;20406;-81
2022/12/19 10:31:20;;;;;;;7.13;6.60;;;;;;;6.86;100.00;101688.31;5114001;29;20035;-81
2022/12/19 10:34:06;;;;;;;17.15;7.88;;;;;;;6.88;100.00;101697.81;5096527;29;20042;-79
2022/12/19 10:36:51;;;;;;;7.88;7.28;;;;;;;6.87;100.00;101689.94;5098027;29;20035;-79
2022/12/19 10:39:30;;;;;;;8.07;7.43;;;;;;;6.85;100.00;101675.91;5098215;29;20090;-80
2022/12/19 10:42:10;;;;;;;7.75;7.20;;;;;;;6.56;100.00;101621.69;5097034;29;20082;-80
2022/12/19 10:44:42;;;;;;;7.87;7.37;;;;;;;6.84;100.00;101672.41;5097702;29;20046;-79
2022/12/19 10:47:16;;;;;;;8.13;7.43;;;;;;;6.26;100.00;101591.03;5114739;29;20371;-80
2022/12/19 10:49:48;;;;;;;6.53;6.22;;;;;;;6.82;100.00;101653.00;5114205;29;20027;-79
2022/12/19 10:53:07;;;;;;;7.63;5.90;;;;;;;6.50;100.00;101587.66;5114730;29;20094;-78
2022/12/19 10:55:43;;;;;;;6.70;6.20;;;;;;;6.96;100.00;101656.44;5080230;29;20044;-80
2022/12/19 10:58:25;;;;;;;6.43;6.05;;;;;;;7.10;100.00;101655.38;5114037;29;20075;-78
2022/12/19 11:01:22;;;;;;;5.60;5.20;;;;;;;7.07;100.00;101639.69;5113928;29;20027;-79
2022/12/19 11:04:11;;;;;;;8.65;8.00;;;;;;;7.28;100.00;101647.41;5112114;29;20027;-81
2022/12/19 11:06:45;;;;;;;4.43;4.23;;;;;;;7.35;100.00;101645.53;5113570;29;20034;-80
2022/12/19 11:09:28;;;;;;;6.97;6.35;;;;;;;7.41;100.00;101639.28;5096032;29;20118;-80
2022/12/19 11:12:11;;;;;;;5.28;4.97;;;;;;;7.54;100.00;101630.31;5094978;29;20028;-78
2022/12/19 11:14:50;;;;;;;6.35;5.85;;;;;;;7.27;100.00;101575.91;5112410;29;20031;-81
2022/12/19 11:17:36;;;;;;;5.80;5.50;;;;;;;7.64;100.00;101619.09;5113633;29;20022;-80
2022/12/19 11:20:13;;;;;;;5.25;4.95;;;;;;;7.82;100.00;101627.19;5113373;29;20525;-80
2022/12/19 11:22:57;;;;;;;5.97;5.32;;;;;;;7.86;100.00;101624.91;5112658;29;20027;-81
2022/12/19 11:25:39;;;;;;;5.32;5.03;;;;;;;7.25;100.00;101520.75;5113632;29;20036;-80
2022/12/19 11:28:18;;;;;;;5.25;4.95;;;;;;;7.95;100.00;101618.22;5114070;29;20031;-81
2022/12/19 11:31:20;;;;;;;6.60;5.93;;;;;;;7.99;100.00;101614.06;5119186;29;20075;-82
2022/12/19 11:34:02;;;;;;;5.25;4.95;;;;;;;8.16;100.00;101615.13;5113200;29;20043;-81
2022/12/19 11:36:40;;;;;;;5.10;4.63;;;;;;;8.21;100.00;101601.00;5118755;29;20027;-82
2022/12/19 11:39:21;;;;;;;4.95;4.55;;;;;;;8.35;100.00;101614.16;5122501;29;20035;-83
2022/12/19 11:42:04;;;;;;;10.90;5.03;;;;;;;7.81;100.00;101520.69;5141039;29;20055;-81
2022/12/19 11:44:47;;;;;;;5.63;5.10;;;;;;;8.40;100.00;101626.91;5124602;29;20034;-82
2022/12/19 11:47:39;;;;;;;4.60;4.40;;;;;;;8.44;100.00;101606.59;5141337;29;20027;-80
2022/12/19 11:50:27;;;;;;;5.00;4.70;;;;;;;8.45;100.00;101602.84;5141091;29;20043;-81
2022/12/19 11:53:02;;;;;;;5.30;4.90;;;;;;;8.34;100.00;101574.00;5123408;29;20042;-80
2022/12/19 11:55:57;;;;;;;5.00;4.70;;;;;;;8.58;100.00;101599.19;5134092;29;20023;-81
2022/12/19 11:58:31;;;;;;;5.75;4.85;;;;;;;8.62;100.00;101595.84;5133668;29;20031;-81